Overview Statistics Trail Chart Weather Telemetry Raw packets
 

This is the latest recevied weather packets stored in our database for station/object VK6WB. If no packets are shown the sender has not sent any weather packets the latest 10 day(s).

<< 36 37 38 39 40 41 42 >>
Time Temp. Humidity Pressure Rain* Wind** Luminosity Snow
1777022404 19.44° C 43% 1013.5 hPa 0 mm - 373 W/m² -
1777021805 19.44° C 44% 1013.5 hPa 0 mm - 373 W/m² -
1777021205 20.56° C 38% 1013.5 hPa 0 mm - 373 W/m² -
1777020605 20.56° C 38% 1013.5 hPa 0 mm - 373 W/m² -
1777020005 20.56° C 37% 1013.5 hPa 0 mm - 373 W/m² -
1777019404 21.11° C 34% 1013.4 hPa 0 mm - 373 W/m² -
1777018805 20.56° C 35% 1013.4 hPa 0 mm - 373 W/m² -
1777018204 20° C 39% 1013.3 hPa 0 mm - 373 W/m² -
1777017605 19.44° C 43% 1013.3 hPa 0 mm - 373 W/m² -
1777017005 20° C 43% 1013.2 hPa 0 mm - 373 W/m² -
1777016405 20° C 47% 1013.1 hPa 0 mm - 373 W/m² -
1777015805 20.56° C 44% 1013 hPa 0 mm - 373 W/m² -
1777015205 21.11° C 36% 1013 hPa 0 mm - 373 W/m² -
1777014604 21.11° C 35% 1012.9 hPa 0 mm - 373 W/m² -
1777014005 21.11° C 35% 1012.8 hPa 0 mm - 373 W/m² -
1777013405 21.11° C 35% 1012.7 hPa 0 mm - 373 W/m² -
1777012804 21.11° C 30% 1012.7 hPa 0 mm - 373 W/m² -
1777012205 21.11° C 28% 1012.4 hPa 0 mm - 373 W/m² -
1777011605 21.67° C 19% 1012.3 hPa 0 mm - 373 W/m² -
1777011004 21.11° C 19% 1012.2 hPa 0 mm - 373 W/m² -
1777010405 21.67° C 13% 1012.2 hPa 0 mm - 373 W/m² -
1777009804 21.11° C 15% 1012.2 hPa 0 mm - 373 W/m² -
1777009205 22.22° C 10% 1012 hPa 0 mm - 373 W/m² -
1777008604 21.11° C 10% 1012.3 hPa 0 mm - 373 W/m² -
1777008005 20° C 13% 1012.4 hPa 0 mm - 373 W/m² -

* Rain latest hour (hover to see other rain measurements)
** Current wind speed in m/s (hover to see current wind gust speed)